Time;durP1;ratioP1;P1;durP2;ratioP2;P2;SDS_P1;SDS_P2;PMS_P1;PMS_P2;Temp;Humidity;BMP_temperature;BMP_pressure;BME280_temperature;BME280_humidity;BME280_pressure;Samples;Min_cycle;Max_cycle;Signal;HPM_P1;HPM_P2
2021/03/28 00:01:11;;;;;;;1.13;1.13;;;;;;;3.21;100.00;100897.56;1776407;80;21021;-72
2021/03/28 00:03:57;;;;;;;1.87;1.37;;;;;;;3.14;100.00;100902.09;1753774;80;21565;-71
2021/03/28 00:06:38;;;;;;;5.50;2.77;;;;;;;3.09;100.00;100893.52;1753789;81;21261;-72
2021/03/28 00:09:37;;;;;;;1.93;1.57;;;;;;;3.07;100.00;100894.11;1890341;76;27025;-72
2021/03/28 00:12:35;;;;;;;0.95;0.88;;;;;;;2.98;100.00;100898.23;1864678;77;20963;-71
2021/03/28 00:15:15;;;;;;;2.20;1.70;;;;;;;2.93;100.00;100902.53;1794894;80;21434;-71
2021/03/28 00:17:51;;;;;;;3.83;2.20;;;;;;;2.86;100.00;100902.56;1769438;78;21500;-73
2021/03/28 00:20:24;;;;;;;0.77;0.77;;;;;;;2.79;100.00;100899.91;1753532;81;21192;-72
2021/03/28 00:23:22;;;;;;;0.83;0.83;;;;;;;2.71;100.00;100908.44;1719418;83;21422;-73
2021/03/28 00:25:58;;;;;;;1.90;1.03;;;;;;;2.64;100.00;100902.63;1757620;81;21595;-73
2021/03/28 00:28:39;;;;;;;1.17;1.00;;;;;;;2.57;100.00;100903.98;1760282;81;21203;-73
2021/03/28 00:31:27;;;;;;;1.47;1.03;;;;;;;2.53;100.00;100899.77;1757366;81;21553;-72
2021/03/28 00:34:26;;;;;;;5.53;1.93;;;;;;;2.53;100.00;100900.26;1845530;76;26685;-73
2021/03/28 00:37:02;;;;;;;2.20;1.23;;;;;;;2.46;100.00;100901.13;1727715;82;21008;-73
2021/03/28 00:39:56;;;;;;;1.50;1.33;;;;;;;2.45;100.00;100905.61;1845449;76;27005;-73
2021/03/28 00:42:42;;;;;;;2.77;1.33;;;;;;;2.42;100.00;100914.30;1815495;79;20988;-73
2021/03/28 00:45:42;;;;;;;3.40;2.20;;;;;;;2.37;100.00;100904.38;1815332;79;21366;-72
2021/03/28 00:48:14;;;;;;;5.13;2.60;;;;;;;2.35;100.00;100912.48;1815372;77;21046;-71
2021/03/28 00:51:12;;;;;;;1.07;1.07;;;;;;;2.29;100.00;100907.55;1815263;79;21036;-72
2021/03/28 00:53:51;;;;;;;1.50;1.00;;;;;;;2.25;100.00;100911.37;1784576;79;20999;-72
2021/03/28 00:56:44;;;;;;;3.30;1.87;;;;;;;2.17;100.00;100909.16;1815440;79;21331;-72
2021/03/28 00:59:25;;;;;;;0.60;0.60;;;;;;;2.12;100.00;100915.25;1815281;79;21192;-72
2021/03/28 01:02:13;;;;;;;1.53;1.00;;;;;;;2.08;100.00;100905.73;1739356;81;21113;-73
2021/03/28 01:05:02;;;;;;;0.63;0.63;;;;;;;2.05;100.00;100909.47;1845481;76;26761;-73
2021/03/28 01:07:46;;;;;;;3.77;2.27;;;;;;;1.97;100.00;100914.41;1815459;79;20933;-72
2021/03/28 01:10:43;;;;;;;7.92;1.50;;;;;;;1.90;100.00;100907.73;1815449;78;22145;-73
2021/03/28 01:13:54;;;;;;;1.70;1.60;;;;;;;1.86;100.00;100907.06;1815368;79;21489;-73
2021/03/28 01:17:23;;;;;;;3.50;2.03;;;;;;;1.83;100.00;100905.06;1810804;78;20984;-73
2021/03/28 01:20:16;;;;;;;2.13;1.57;;;;;;;1.83;100.00;100907.73;1797208;79;21028;-72
2021/03/28 01:23:05;;;;;;;;;;;;;;;1.82;100.00;100907.33;1823093;78;21085;-73
2021/03/28 01:25:59;;;;;;;5.43;1.50;;;;;;;1.82;100.00;100910.00;1835227;78;22969;-72
2021/03/28 01:28:34;;;;;;;;;;;;;;;1.81;100.00;100909.64;1836295;78;21083;-72
2021/03/28 01:31:44;;;;;;;2.33;1.70;;;;;;;1.81;100.00;100915.82;1835310;78;20114;-72
2021/03/28 01:34:23;;;;;;;2.13;1.37;;;;;;;1.80;100.00;100918.58;1832094;78;20945;-71
2021/03/28 01:37:27;;;;;;;4.20;2.77;;;;;;;1.79;100.00;100919.52;1833125;76;27781;-71
2021/03/28 01:40:52;;;;;;;1.93;1.40;;;;;;;1.74;100.00;100919.81;1818566;79;20927;-73
2021/03/28 01:43:57;;;;;;;0.98;0.65;;;;;;;1.75;100.00;100918.84;1818782;79;21132;-72
2021/03/28 01:46:59;;;;;;;1.53;1.40;;;;;;;1.74;100.00;100915.81;1767721;81;21193;-72
2021/03/28 01:49:56;;;;;;;1.33;0.87;;;;;;;1.73;100.00;100916.75;1767942;81;20961;-72
2021/03/28 01:52:34;;;;;;;0.73;0.73;;;;;;;1.73;100.00;100922.56;1767761;81;20953;-72
2021/03/28 01:55:30;;;;;;;1.87;1.73;;;;;;;1.70;100.00;100923.62;1767811;81;21068;-72
2021/03/28 01:58:39;;;;;;;1.57;1.47;;;;;;;1.70;100.00;100923.62;1767888;79;21639;-72
2021/03/28 02:01:18;;;;;;;0.40;0.40;;;;;;;1.70;100.00;100928.95;1764461;81;21590;-72
2021/03/28 02:04:24;;;;;;;1.83;1.33;;;;;;;1.69;100.00;100932.56;1767678;81;21608;-72
2021/03/28 02:07:39;;;;;;;1.17;0.90;;;;;;;1.69;100.00;100924.08;1845238;76;27209;-73
2021/03/28 02:11:03;;;;;;;3.63;1.93;;;;;;;1.61;100.00;100927.70;1815374;77;20957;-72
2021/03/28 02:13:55;;;;;;;0.53;0.53;;;;;;;1.56;100.00;100933.78;1815567;78;21359;-71
2021/03/28 02:16:31;;;;;;;1.20;1.00;;;;;;;1.51;100.00;100932.70;1815404;79;21036;-72
2021/03/28 02:19:18;;;;;;;4.37;2.10;;;;;;;1.50;100.00;100936.30;1705625;79;21068;-73
2021/03/28 02:22:37;;;;;;;0.70;0.70;;;;;;;1.51;100.00;100935.37;1719528;82;21205;-72
2021/03/28 02:25:59;;;;;;;3.10;1.40;;;;;;;1.55;100.00;100932.05;1845412;76;26960;-73
2021/03/28 02:29:01;;;;;;;0.60;0.60;;;;;;;1.54;100.00;100938.34;1754093;81;21060;-72
2021/03/28 02:32:15;;;;;;;1.47;1.37;;;;;;;1.53;100.00;100938.44;1750167;81;21386;-72
2021/03/28 02:35:09;;;;;;;2.67;1.23;;;;;;;1.50;100.00;100932.80;1753969;81;21589;-72
2021/03/28 02:37:48;;;;;;;0.63;0.63;;;;;;;1.47;100.00;100932.52;1753904;81;21068;-71
2021/03/28 02:40:44;;;;;;;1.33;1.23;;;;;;;1.46;100.00;100928.12;1890086;75;27423;-73
2021/03/28 02:43:34;;;;;;;;;;;;;;;1.41;100.00;100930.67;1863882;77;21026;-72
2021/03/28 02:46:27;;;;;;;0.70;0.70;;;;;;;1.38;100.00;100932.18;1861006;77;21874;-72
2021/03/28 02:49:36;;;;;;;0.37;0.37;;;;;;;1.36;100.00;100937.59;1792458;80;21020;-71
2021/03/28 02:52:26;;;;;;;3.20;2.33;;;;;;;1.38;100.00;100938.39;1792470;80;21032;-73
2021/03/28 02:55:40;;;;;;;8.80;2.50;;;;;;;1.44;100.00;100939.83;1792466;80;21539;-72
2021/03/28 02:58:54;;;;;;;5.00;2.80;;;;;;;1.63;100.00;100933.80;1890205;76;26693;-71
2021/03/28 03:02:04;;;;;;;2.43;2.10;;;;;;;1.71;100.00;100950.17;1860378;77;21030;-72
2021/03/28 03:04:49;;;;;;;7.93;3.07;;;;;;;1.80;100.00;100947.42;1861149;77;21643;-71
2021/03/28 03:07:49;;;;;;;11.93;2.90;;;;;;;1.90;100.00;100946.41;1860744;77;21036;-72
2021/03/28 03:10:38;;;;;;;8.07;3.77;;;;;;;1.97;100.00;100954.42;1861019;77;20919;-72
2021/03/28 03:13:21;;;;;;;5.93;3.27;;;;;;;2.03;100.00;100959.85;1860632;77;21002;-72
2021/03/28 03:16:06;;;;;;;6.78;3.22;;;;;;;2.06;100.00;100956.52;1861015;77;21389;-72
2021/03/28 03:19:20;;;;;;;5.50;3.13;;;;;;;2.08;100.00;100959.95;1861130;76;21471;-73
2021/03/28 03:22:13;;;;;;;3.37;2.55;;;;;;;2.11;100.00;100962.03;1860930;76;21034;-72
2021/03/28 03:25:12;;;;;;;5.97;3.37;;;;;;;2.11;100.00;100954.91;1860990;77;21038;-72
2021/03/28 03:28:05;;;;;;;5.13;2.87;;;;;;;2.16;100.00;100955.49;1856164;77;20994;-73
2021/03/28 03:30:58;;;;;;;15.13;5.17;;;;;;;2.18;100.00;100945.58;1861181;77;21046;-72
2021/03/28 03:33:55;;;;;;;2.80;2.42;;;;;;;2.18;100.00;100950.91;1861009;77;21791;-73
2021/03/28 03:36:38;;;;;;;4.20;3.23;;;;;;;2.17;100.00;100953.67;1864788;76;21505;-72
2021/03/28 03:39:23;;;;;;;7.67;4.28;;;;;;;2.13;100.00;100949.48;1872724;76;21707;-73
2021/03/28 03:42:04;;;;;;;13.80;6.20;;;;;;;2.12;100.00;100953.95;1867997;76;20937;-72
2021/03/28 03:45:28;;;;;;;8.97;5.20;;;;;;;2.12;100.00;100959.77;1872472;76;20980;-72
2021/03/28 03:48:19;;;;;;;3.77;3.25;;;;;;;2.10;100.00;100953.19;1872598;76;21817;-73
2021/03/28 03:51:13;;;;;;;5.37;3.17;;;;;;;2.06;100.00;100959.67;1781028;80;21824;-73
2021/03/28 03:54:34;;;;;;;11.23;5.67;;;;;;;2.02;100.00;100968.80;1845522;76;27024;-72
2021/03/28 03:57:29;;;;;;;10.28;4.58;;;;;;;1.91;100.00;100986.78;1815550;79;21589;-72
2021/03/28 04:00:25;;;;;;;6.57;4.53;;;;;;;1.84;100.00;100986.77;1815503;79;21359;-71
2021/03/28 04:03:17;;;;;;;8.67;3.97;;;;;;;1.87;100.00;100979.92;1815416;78;20980;-72
2021/03/28 04:06:24;;;;;;;3.93;3.17;;;;;;;1.92;100.00;100986.33;1815470;78;20976;-73
2021/03/28 04:09:10;;;;;;;7.10;3.40;;;;;;;1.98;100.00;100988.12;1815601;79;20991;-72
2021/03/28 04:11:53;;;;;;;5.17;3.23;;;;;;;2.00;100.00;100992.92;1817419;79;20956;-72
2021/03/28 04:15:02;;;;;;;2.40;1.83;;;;;;;2.01;100.00;101001.29;1815519;79;21192;-71
2021/03/28 04:17:55;;;;;;;6.67;3.83;;;;;;;2.01;100.00;100997.29;1823696;77;21586;-70
2021/03/28 04:20:44;;;;;;;2.47;1.80;;;;;;;2.03;100.00;100996.72;1859402;77;20922;-71
2021/03/28 04:23:44;;;;;;;11.90;3.40;;;;;;;2.05;100.00;101008.18;1820546;76;21000;-72
2021/03/28 04:26:39;;;;;;;4.47;2.93;;;;;;;2.09;100.00;101011.03;1815368;79;21000;-71
2021/03/28 04:29:09;;;;;;;4.90;2.00;;;;;;;2.14;100.00;101019.23;1815434;79;22653;-72
2021/03/28 04:31:48;;;;;;;2.33;1.90;;;;;;;2.16;100.00;101021.32;1815234;79;20924;-73
2021/03/28 04:34:48;;;;;;;2.80;2.47;;;;;;;2.17;100.00;101019.05;1813646;79;20995;-73
2021/03/28 04:37:44;;;;;;;1.80;1.67;;;;;;;2.19;100.00;101021.14;1728380;81;21410;-72
2021/03/28 04:40:27;;;;;;;6.40;3.97;;;;;;;2.22;100.00;101026.30;1728157;82;21142;-72
2021/03/28 04:43:06;;;;;;;2.60;1.92;;;;;;;2.26;100.00;101030.49;1726874;83;21434;-72
2021/03/28 04:46:09;;;;;;;2.40;2.03;;;;;;;2.35;100.00;101023.25;1725006;83;21087;-73
2021/03/28 04:49:23;;;;;;;8.63;4.10;;;;;;;2.53;100.00;101023.08;1845656;76;26395;-72
2021/03/28 04:52:31;;;;;;;11.30;6.00;;;;;;;2.64;100.00;101029.95;1777284;80;21657;-72
2021/03/28 04:55:42;;;;;;;5.87;3.17;;;;;;;2.81;100.00;101029.73;1777334;80;21360;-73
2021/03/28 04:58:30;;;;;;;2.37;2.17;;;;;;;3.00;100.00;101032.10;1777136;80;21196;-72
2021/03/28 05:01:23;;;;;;;3.90;3.30;;;;;;;3.18;100.00;101025.20;1777247;80;21005;-72
2021/03/28 05:04:43;;;;;;;5.25;4.42;;;;;;;3.33;100.00;101023.33;1773810;80;21069;-72
2021/03/28 05:07:56;;;;;;;7.83;5.07;;;;;;;3.51;100.00;101027.97;1777137;79;21518;-73
2021/03/28 05:10:52;;;;;;;9.67;4.80;;;;;;;3.69;100.00;101028.08;1777092;80;21134;-72
2021/03/28 05:13:51;;;;;;;9.20;5.50;;;;;;;3.88;100.00;101032.17;1777160;80;21088;-72
2021/03/28 05:16:49;;;;;;;11.00;6.67;;;;;;;4.08;100.00;101040.20;1776107;80;21002;-72
2021/03/28 05:19:47;;;;;;;10.07;5.77;;;;;;;4.33;100.00;101032.67;1845448;76;27026;-73
2021/03/28 05:23:13;;;;;;;9.43;4.45;;;;;;;4.46;100.00;101046.95;1795215;78;20989;-73
2021/03/28 05:26:07;;;;;;;3.40;2.70;;;;;;;4.61;100.00;101046.34;1783235;80;21613;-72
2021/03/28 05:29:17;;;;;;;5.65;3.27;;;;;;;4.81;100.00;101043.58;1770072;79;21099;-73
2021/03/28 05:32:26;;;;;;;5.50;3.60;;;;;;;4.99;100.00;101037.88;1770023;80;21096;-72
2021/03/28 05:35:24;;;;;;;10.87;4.90;;;;;;;5.16;100.00;101036.17;1769997;81;21494;-72
2021/03/28 05:38:32;;;;;;;4.40;3.00;;;;;;;5.33;100.00;101029.59;1770054;81;21027;-72
2021/03/28 05:41:51;;;;;;;8.63;4.23;;;;;;;5.48;100.00;101035.62;1770004;80;21474;-72
2021/03/28 05:44:56;;;;;;;5.00;2.20;;;;;;;5.65;100.00;101031.70;1769945;80;21032;-72
2021/03/28 05:48:03;;;;;;;6.20;3.17;;;;;;;5.90;100.00;101025.33;1845520;76;26454;-71
2021/03/28 05:50:52;;;;;;;2.20;1.97;;;;;;;6.05;100.00;101030.88;1787408;79;20992;-72
2021/03/28 05:53:25;;;;;;;3.03;2.20;;;;;;;6.26;100.00;101038.27;1767863;81;21201;-72
2021/03/28 05:56:31;;;;;;;3.00;2.47;;;;;;;6.47;100.00;101037.09;1754102;81;21052;-71
2021/03/28 06:00:01;;;;;;;1.57;1.47;;;;;;;6.67;100.00;101033.31;1701926;84;20976;-73
2021/03/28 06:03:10;;;;;;;1.50;1.07;;;;;;;6.91;100.00;101031.87;1720014;83;21069;-71
2021/03/28 06:06:23;;;;;;;1.27;1.20;;;;;;;7.19;100.00;101028.64;1723610;83;21589;-71
2021/03/28 06:09:34;;;;;;;4.33;1.63;;;;;;;7.47;100.00;101025.05;1723671;83;21221;-73
2021/03/28 06:12:14;;;;;;;2.30;1.50;;;;;;;7.75;100.00;101031.65;1723557;83;21638;-72
2021/03/28 06:15:04;;;;;;;1.90;1.60;;;;;;;8.02;100.00;101036.19;1723661;83;21615;-73
2021/03/28 06:18:06;;;;;;;3.03;2.23;;;;;;;8.21;100.00;101030.94;1719292;83;21009;-71
2021/03/28 06:21:06;;;;;;;4.95;2.37;;;;;;;8.40;100.00;101023.98;1719159;83;21096;-72
2021/03/28 06:23:48;;;;;;;2.60;1.30;;;;;;;8.53;100.00;101020.59;1733445;82;22276;-73
2021/03/28 06:27:05;;;;;;;8.43;3.30;;;;;;;8.67;100.00;101014.84;1733588;82;21044;-72
2021/03/28 06:30:08;;;;;;;3.07;2.13;;;;;;;8.85;100.00;101015.09;1738153;80;21067;-73
2021/03/28 06:33:01;;;;;;;3.60;1.63;;;;;;;9.07;100.00;101017.22;1779713;80;21019;-72
2021/03/28 06:36:13;;;;;;;7.80;2.87;;;;;;;9.20;100.00;101015.11;1779929;80;21011;-74
2021/03/28 06:39:27;;;;;;;2.13;1.93;;;;;;;9.36;100.00;101005.63;1779568;80;21366;-73
2021/03/28 06:42:35;;;;;;;1.75;1.65;;;;;;;9.53;100.00;101009.00;1779748;80;20968;-72
2021/03/28 06:45:32;;;;;;;1.50;1.40;;;;;;;9.77;100.00;101019.36;1779678;80;20963;-72
2021/03/28 06:48:28;;;;;;;3.17;2.20;;;;;;;10.05;100.00;101017.65;1779559;80;20948;-72
2021/03/28 06:51:24;;;;;;;1.60;1.50;;;;;;;10.28;100.00;101020.55;1779789;79;21670;-73
2021/03/28 06:54:33;;;;;;;7.90;1.43;;;;;;;10.49;100.00;101020.40;1779689;79;21190;-72
2021/03/28 06:57:35;;;;;;;2.67;1.63;;;;;;;10.58;100.00;101023.05;1779540;79;21011;-73
2021/03/28 07:00:30;;;;;;;3.83;1.80;;;;;;;10.64;100.00;101018.91;1779291;80;21648;-72
2021/03/28 07:03:18;;;;;;;1.90;1.60;;;;;;;10.77;100.00;101011.32;1778321;80;21075;-72
2021/03/28 07:06:16;;;;;;;1.30;1.20;;;;;;;10.96;100.00;101014.93;1779049;80;20948;-73
2021/03/28 07:09:26;;;;;;;2.07;1.87;;;;;;;11.07;100.00;101013.91;1779135;80;21663;-73
2021/03/28 07:12:42;;;;;;;1.43;1.33;;;;;;;11.11;100.00;101013.95;1779085;79;21039;-73
2021/03/28 07:15:31;;;;;;;;;;;;;;;11.20;100.00;101008.46;1781771;80;21015;-73
2021/03/28 07:18:14;;;;;;;1.37;1.23;;;;;;;11.42;100.00;101013.61;1813898;78;20158;-73
2021/03/28 07:21:16;;;;;;;2.93;1.43;;;;;;;11.55;100.00;101018.16;1808385;79;21025;-73
2021/03/28 07:24:46;;;;;;;1.77;1.13;;;;;;;11.64;100.00;101015.88;1714259;83;21192;-74
2021/03/28 07:27:44;;;;;;;1.15;1.12;;;;;;;11.82;100.00;101006.91;1740058;82;21040;-72
2021/03/28 07:30:59;;;;;;;2.27;1.65;;;;;;;11.83;100.00;101011.30;1740243;82;21614;-73
2021/03/28 07:33:44;;;;;;;0.78;0.78;;;;;;;11.84;100.00;101008.44;1738862;82;21593;-73
2021/03/28 07:36:43;;;;;;;3.85;2.08;;;;;;;11.96;100.00;101015.35;1740112;82;20992;-74
2021/03/28 07:39:47;;;;;;;1.77;1.67;;;;;;;12.11;100.00;101006.17;1744849;81;21617;-73
2021/03/28 07:42:54;;;;;;;1.12;1.10;;;;;;;12.30;100.00;101003.75;1770790;81;21008;-73
2021/03/28 07:45:49;;;;;;;1.72;1.62;;;;;;;12.56;100.00;101012.92;1770666;81;20989;-73
2021/03/28 07:48:38;;;;;;;0.95;0.72;;;;;;;12.78;100.00;101004.72;1770656;81;21598;-72
2021/03/28 07:51:37;;;;;;;1.45;1.32;;;;;;;12.89;100.00;101008.49;1674811;85;21044;-73
2021/03/28 07:54:15;;;;;;;0.45;0.45;;;;;;;13.04;100.00;100998.72;1671360;85;21816;-74
2021/03/28 07:57:07;;;;;;;2.52;1.07;;;;;;;13.10;100.00;101003.52;1671780;85;21043;-74
2021/03/28 07:59:53;;;;;;;1.70;1.55;;;;;;;13.32;100.00;100997.16;1669038;85;20999;-74
2021/03/28 08:03:02;;;;;;;2.47;1.72;;;;;;;13.58;100.00;100997.05;1676953;84;21647;-73
2021/03/28 08:06:10;;;;;;;2.30;2.10;;;;;;;13.78;100.00;100999.45;1664429;86;21216;-72
2021/03/28 08:09:11;;;;;;;1.87;1.77;;;;;;;13.94;100.00;100998.61;1682237;85;21054;-73
2021/03/28 08:11:53;;;;;;;2.37;1.70;;;;;;;14.03;100.00;101005.74;1667660;86;21006;-73
2021/03/28 08:14:44;;;;;;;2.98;2.08;;;;;;;14.13;100.00;100997.39;1650934;85;21222;-73
2021/03/28 08:18:01;;;;;;;1.63;1.53;;;;;;;13.86;100.00;101000.80;1830821;76;22778;-72
2021/03/28 08:20:50;;;;;;;1.67;1.57;;;;;;;13.52;100.00;100999.06;1799453;77;21000;-73
2021/03/28 08:23:48;;;;;;;2.45;1.87;;;;;;;13.61;100.00;101002.64;1799140;77;21641;-72
2021/03/28 08:26:25;;;;;;;2.33;1.22;;;;;;;13.57;100.00;100996.70;1802074;79;20999;-72
2021/03/28 08:29:28;;;;;;;1.62;1.52;;;;;;;13.43;100.00;100992.77;1811442;79;21572;-73
2021/03/28 08:32:33;;;;;;;3.72;1.65;;;;;;;13.43;100.00;101000.07;1810935;79;20960;-74
2021/03/28 08:35:19;;;;;;;2.27;1.77;;;;;;;13.58;100.00;100991.62;1811549;79;21004;-73
2021/03/28 08:38:04;;;;;;;2.27;1.37;;;;;;;13.78;100.00;100992.14;1815427;79;21816;-72
2021/03/28 08:40:57;;;;;;;1.47;1.37;;;;;;;13.80;100.00;100992.81;1813998;79;21561;-72
2021/03/28 08:43:58;;;;;;;3.55;2.35;;;;;;;14.01;100.00;100995.03;1818674;78;21429;-73
2021/03/28 08:46:41;;;;;;;2.85;1.75;;;;;;;14.15;100.00;100993.50;1718875;83;20957;-73
2021/03/28 08:49:29;;;;;;;2.70;1.72;;;;;;;13.78;100.00;101001.66;1711345;83;20961;-74
2021/03/28 08:52:34;;;;;;;4.22;2.67;;;;;;;13.65;100.00;100995.36;1715044;83;21663;-74
2021/03/28 08:55:45;;;;;;;1.70;1.32;;;;;;;13.61;100.00;100993.98;1711755;83;21014;-73
2021/03/28 08:58:23;;;;;;;2.62;1.98;;;;;;;13.76;100.00;100986.55;1718651;82;20978;-72
2021/03/28 09:01:05;;;;;;;1.60;1.50;;;;;;;14.03;100.00;100985.35;1839898;76;22797;-71
2021/03/28 09:04:05;;;;;;;4.87;3.05;;;;;;;14.01;100.00;100989.59;1779946;77;21039;-76
2021/03/28 09:06:59;;;;;;;2.25;1.52;;;;;;;14.03;100.00;100992.98;1815430;79;21138;-76
2021/03/28 09:09:49;;;;;;;2.08;1.70;;;;;;;14.19;100.00;100989.41;1804997;77;21040;-77
2021/03/28 09:13:03;;;;;;;3.92;1.95;;;;;;;14.58;100.00;100990.56;1777502;78;21086;-76
2021/03/28 09:16:00;;;;;;;1.87;1.57;;;;;;;14.92;100.00;100980.73;1794595;79;21012;-74
2021/03/28 09:19:32;;;;;;;4.20;2.43;;;;;;;15.30;100.00;100973.26;1874545;76;22143;-74
2021/03/28 09:22:29;;;;;;;1.42;1.32;;;;;;;15.36;100.00;100975.25;1835355;77;21616;-76
2021/03/28 09:25:22;;;;;;;2.95;2.20;;;;;;;15.60;100.00;100974.25;1746356;81;22822;-73
2021/03/28 09:28:07;;;;;;;2.08;1.98;;;;;;;15.84;100.00;100972.39;1746286;78;21689;-70
2021/03/28 09:31:09;;;;;;;5.57;3.23;;;;;;;15.76;100.00;100967.86;1883145;75;22692;-71
2021/03/28 09:34:41;;;;;;;3.17;2.25;;;;;;;15.47;100.00;100968.53;1779077;79;21575;-69
2021/03/28 09:37:43;;;;;;;3.58;2.60;;;;;;;15.40;100.00;100969.77;1803143;79;22258;-71
2021/03/28 09:40:42;;;;;;;3.30;3.00;;;;;;;15.04;98.23;100962.14;1803225;79;21389;-70
2021/03/28 09:43:28;;;;;;;2.77;2.50;;;;;;;14.92;99.84;100963.56;1803235;79;20985;-71
2021/03/28 09:46:19;;;;;;;5.10;2.50;;;;;;;14.99;99.98;100961.83;1802619;79;21045;-70
2021/03/28 09:49:15;;;;;;;3.62;2.67;;;;;;;15.09;98.12;100960.26;1803226;79;20997;-71
2021/03/28 09:52:15;;;;;;;3.77;2.77;;;;;;;15.10;96.05;100962.81;1705360;84;21661;-71
2021/03/28 09:55:17;;;;;;;5.40;2.60;;;;;;;14.93;99.64;100954.38;1705482;84;21038;-71
2021/03/28 09:58:12;;;;;;;4.45;3.20;;;;;;;14.94;99.78;100954.70;1705553;84;21065;-71
2021/03/28 10:01:11;;;;;;;2.37;1.90;;;;;;;14.79;100.00;100955.45;1702785;84;20970;-71
2021/03/28 10:03:59;;;;;;;2.90;1.92;;;;;;;14.79;100.00;100955.97;1705640;84;20943;-70
2021/03/28 10:06:28;;;;;;;2.80;1.82;;;;;;;14.72;100.00;100952.25;1705535;84;21749;-70
2021/03/28 10:09:17;;;;;;;4.03;2.85;;;;;;;14.59;100.00;100948.21;1705085;84;21117;-70
2021/03/28 10:11:56;;;;;;;2.77;2.05;;;;;;;14.66;100.00;100942.92;1705422;84;21026;-69
2021/03/28 10:14:48;;;;;;;2.45;1.95;;;;;;;14.90;100.00;100939.75;1705395;84;21129;-70
2021/03/28 10:17:57;;;;;;;4.65;2.87;;;;;;;15.13;100.00;100932.47;1724282;82;21017;-71
2021/03/28 10:20:36;;;;;;;4.00;3.05;;;;;;;15.12;100.00;100930.79;1732335;82;21015;-70
2021/03/28 10:23:46;;;;;;;3.75;2.75;;;;;;;14.94;100.00;100935.14;1707137;82;21124;-68
2021/03/28 10:27:11;;;;;;;4.60;2.77;;;;;;;15.00;100.00;100934.42;1713767;83;21054;-70
2021/03/28 10:30:15;;;;;;;6.00;3.00;;;;;;;15.25;100.00;100929.35;1846879;77;21570;-70
2021/03/28 10:33:08;;;;;;;3.60;2.47;;;;;;;15.42;97.76;100927.34;1864532;77;21141;-69
2021/03/28 10:36:06;;;;;;;3.87;2.52;;;;;;;15.29;95.10;100928.80;1861567;76;21363;-69
2021/03/28 10:38:54;;;;;;;5.53;3.35;;;;;;;15.40;97.90;100922.59;1864295;77;21425;-70
2021/03/28 10:41:37;;;;;;;5.20;3.42;;;;;;;15.65;95.12;100919.16;1863803;77;20981;-70
2021/03/28 10:44:51;;;;;;;3.55;2.95;;;;;;;15.77;94.67;100919.62;1863607;77;21546;-71
2021/03/28 10:47:54;;;;;;;6.00;2.92;;;;;;;15.71;91.05;100917.92;1862752;77;20880;-70
2021/03/28 10:50:51;;;;;;;4.97;3.08;;;;;;;15.42;90.79;100914.56;1863870;77;21034;-70
2021/03/28 10:53:45;;;;;;;7.50;3.65;;;;;;;15.19;93.44;100909.09;1863584;77;20947;-71
2021/03/28 10:56:55;;;;;;;4.22;2.75;;;;;;;14.83;95.82;100915.63;1859730;77;21581;-70
2021/03/28 11:00:13;;;;;;;5.22;3.00;;;;;;;14.37;97.37;100914.39;1863637;77;21630;-70
2021/03/28 11:02:59;;;;;;;8.20;3.92;;;;;;;14.02;100.00;100917.02;1859772;77;21014;-70
2021/03/28 11:05:56;;;;;;;6.70;3.62;;;;;;;13.81;100.00;100909.39;1759769;80;21376;-70
2021/03/28 11:08:52;;;;;;;7.97;4.10;;;;;;;13.69;100.00;100910.27;1845062;76;22819;-70
2021/03/28 11:11:48;;;;;;;4.97;3.50;;;;;;;13.73;100.00;100903.98;1815189;78;21047;-70
2021/03/28 11:14:57;;;;;;;5.53;2.80;;;;;;;14.08;100.00;100903.23;1815208;78;21644;-70
2021/03/28 11:17:58;;;;;;;6.37;3.33;;;;;;;14.29;100.00;100895.39;1788580;79;21007;-70
2021/03/28 11:20:47;;;;;;;5.00;2.92;;;;;;;14.27;98.82;100903.38;1785031;80;21174;-71
2021/03/28 11:23:45;;;;;;;4.13;3.03;;;;;;;14.09;100.00;100907.66;1814144;76;22502;-70
2021/03/28 11:26:49;;;;;;;6.35;3.65;;;;;;;13.91;100.00;100906.51;1773303;80;21065;-69
2021/03/28 11:29:35;;;;;;;;;;;;;;;13.68;99.46;100903.12;1779691;80;21185;-70
2021/03/28 11:32:28;;;;;;;4.35;3.17;;;;;;;13.35;100.00;100907.20;1776954;80;20166;-69
2021/03/28 11:35:13;;;;;;;10.15;4.70;;;;;;;13.15;100.00;100906.60;1777099;80;21025;-70
2021/03/28 11:38:12;;;;;;;6.80;3.80;;;;;;;13.01;100.00;100910.81;1777176;80;20953;-70
2021/03/28 11:40:40;;;;;;;6.08;3.92;;;;;;;12.88;100.00;100907.73;1778006;79;21029;-69
2021/03/28 11:43:13;;;;;;;5.35;2.83;;;;;;;12.79;100.00;100902.78;1764785;80;21649;-69
2021/03/28 11:45:47;;;;;;;7.22;4.22;;;;;;;12.84;100.00;100911.80;1790510;80;20980;-69
2021/03/28 11:48:33;;;;;;;6.27;3.83;;;;;;;13.19;100.00;100897.13;1844605;75;22433;-69
2021/03/28 11:51:28;;;;;;;6.67;3.35;;;;;;;13.46;100.00;100894.63;1815225;79;20980;-69
2021/03/28 11:54:15;;;;;;;6.17;3.15;;;;;;;13.90;100.00;100895.28;1815169;79;21644;-69
2021/03/28 11:56:52;;;;;;;5.83;3.25;;;;;;;14.37;100.00;100895.34;1815054;79;21008;-71
2021/03/28 11:59:27;;;;;;;3.37;2.33;;;;;;;14.80;100.00;100882.28;1784687;79;21513;-69
2021/03/28 12:02:13;;;;;;;6.83;3.87;;;;;;;15.03;100.00;100885.53;1819426;78;21010;-70
2021/03/28 12:05:06;;;;;;;6.58;3.98;;;;;;;15.03;97.62;100884.70;1825689;77;21017;-69
2021/03/28 12:07:44;;;;;;;6.65;4.53;;;;;;;14.85;97.36;100891.26;1730337;82;22386;-69
2021/03/28 12:10:30;;;;;;;5.00;3.22;;;;;;;14.83;97.35;100885.67;1706282;83;20976;-69
2021/03/28 12:13:27;;;;;;;7.75;4.95;;;;;;;14.86;97.77;100885.33;1729418;83;21188;-70
2021/03/28 12:16:05;;;;;;;9.37;4.97;;;;;;;14.97;95.33;100888.47;1851271;75;22325;-71
2021/03/28 12:18:49;;;;;;;8.05;4.28;;;;;;;14.77;98.76;100878.55;1790773;80;21510;-70
2021/03/28 12:21:33;;;;;;;5.50;3.63;;;;;;;14.44;98.74;100875.09;1845789;76;22748;-70
2021/03/28 12:24:04;;;;;;;6.05;3.85;;;;;;;14.08;100.00;100880.13;1818399;79;20995;-71
2021/03/28 12:26:43;;;;;;;3.95;3.27;;;;;;;13.78;100.00;100882.05;1818444;78;21364;-70
2021/03/28 12:29:17;;;;;;;7.12;4.20;;;;;;;13.40;100.00;100880.87;1818217;78;21066;-70
2021/03/28 12:31:48;;;;;;;;;;;;;;;13.16;100.00;100880.32;1821154;79;21007;-71
2021/03/28 12:34:33;;;;;;;5.08;3.00;;;;;;;13.02;100.00;100879.11;1749933;81;20229;-69
2021/03/28 12:37:14;;;;;;;5.78;3.67;;;;;;;12.97;100.00;100878.75;1749938;82;21009;-70
2021/03/28 12:39:49;;;;;;;3.20;2.25;;;;;;;13.08;100.00;100883.37;1749932;82;21352;-70
2021/03/28 12:42:31;;;;;;;4.45;2.90;;;;;;;13.17;100.00;100890.16;1749846;82;21066;-69
2021/03/28 12:45:16;;;;;;;6.03;3.90;;;;;;;13.30;100.00;100876.94;1845085;75;22139;-70
2021/03/28 12:47:53;;;;;;;2.72;2.22;;;;;;;13.38;100.00;100874.77;1815215;79;20909;-70
2021/03/28 12:50:42;;;;;;;5.28;3.72;;;;;;;13.63;100.00;100872.40;1815183;78;21355;-69
2021/03/28 12:53:20;;;;;;;5.47;3.72;;;;;;;13.97;100.00;100867.73;1815103;79;21020;-70
2021/03/28 12:55:52;;;;;;;4.22;3.02;;;;;;;14.22;100.00;100863.95;1786324;79;20976;-70
2021/03/28 12:58:42;;;;;;;6.05;3.95;;;;;;;14.45;100.00;100860.48;1815158;79;20976;-69
2021/03/28 13:01:30;;;;;;;7.08;4.60;;;;;;;14.67;100.00;100857.50;1815056;79;20929;-70
2021/03/28 13:04:21;;;;;;;12.15;5.22;;;;;;;14.81;100.00;100851.29;1809964;79;21545;-70
2021/03/28 13:06:51;;;;;;;8.08;5.15;;;;;;;14.75;94.71;100850.66;1815140;79;21410;-69
2021/03/28 13:09:28;;;;;;;6.28;4.12;;;;;;;14.54;95.81;100858.56;1815168;78;20988;-69
2021/03/28 13:12:10;;;;;;;8.28;4.65;;;;;;;14.44;97.38;100858.24;1815056;79;21003;-69
2021/03/28 13:14:45;;;;;;;9.80;6.05;;;;;;;14.35;91.28;100851.14;1815237;79;21008;-69
2021/03/28 13:17:30;;;;;;;17.75;7.08;;;;;;;14.14;90.87;100853.61;1796551;79;21541;-70
2021/03/28 13:20:22;;;;;;;5.25;3.83;;;;;;;14.01;93.53;100851.44;1782895;79;21000;-70
2021/03/28 13:22:52;;;;;;;8.25;3.67;;;;;;;14.09;96.02;100851.91;1743618;79;20988;-70
2021/03/28 13:25:26;;;;;;;8.83;4.85;;;;;;;14.12;90.22;100836.63;1696890;84;21104;-70
2021/03/28 13:28:16;;;;;;;7.00;4.20;;;;;;;14.16;88.10;100839.31;1851901;76;22707;-70
2021/03/28 13:30:48;;;;;;;4.30;2.85;;;;;;;14.22;88.53;100841.35;1782686;80;21551;-69